Airport View

Enter AWOS ICAO identifier for current METAR.

ex. KFNL

KLHM 250335Z AUTO 17009KT 10SM CLR 25/13 A2978 RMK AO1

25 Jun 2018 03:51

Frequency: 124.25

Phone: 916-645-0698

Other Area AWOS: KAUN - KBAB - KMCC - KMYV

TAF AMD KBAB 230354Z 2303/2409 VRB06KT 9999 SKC QNH2972INS BECMG 2317/2318 33009KT 9999 SKC QNH2968INS BECMG 2320/2321 34012KT 9999 SKC QNH2963INS TEMPO 2321/2324 34012G18KT BECMG 2402/2403 03009KT 9999 SKC QNH2965INS TX38/2323Z TN17/2312Z LAST NO AMDS AFT 2304 NEXT 2513